Greensboro, NC (27455)

7:53 PM EST on February 21, 2017 (GMT -0500)
Ridgewood | | Change Station

Elev 807 ft 36.20 °N, 79.81 °W | Updated 1 second ago

Partly Cloudy
Partly Cloudy
52.0 °F
Feels Like 52.0 °F
N
0.0
Wind Variable Wind from SE
Gusts 0.0 mph

Today
High -- | Low -- °F
--% Chance of Precip.
Yesterday
High -- | Low -- °F
Precip. -- in
Pressure 30.12 in
Visibility 10.0 miles
Clouds Few 6000 ft
Overcast 24000 ft
Dew Point 25 °F
Humidity 35%
Rainfall 0.00 in
Snow Depth Not available.
6:59 AM 6:06 PM
Waning Crescent, 21% visible
METAR KGSO 212354Z 10004KT 10SM FEW060 OVC240 13/04 A3012 RMK AO2 SLP199 T01330044 10172 20133 53001
Pressure 30.12 in
Visibility 10.0 miles
Clouds Few 6000 ft
Overcast 24000 ft
Dew Point 25 °F
Humidity 35%
Rainfall 0.00 in
Snow Depth Not available.
6:59 AM 6:06 PM
Waning Crescent, 21% visible
METAR KGSO 212354Z 10004KT 10SM FEW060 OVC240 13/04 A3012 RMK AO2 SLP199 T01330044 10172 20133 53001

Get Your Daily Forecast Email!

Thanks for signing up!

Be on the lookout for a verification email in your inbox.

You'll start receiving the daily forecast at 8 AM.

×

10-Day Weather Forecast

Almanac

Astronomy

Feb. 21, 2017 Rise Set
Actual Time
Civil Twilight
Nautical Twilight
Astronomical Twilight
Moon
Length of Visible Light
Length of Day
Tomorrow will be .
, % of the Moon is Illuminated

Today's Extremes

State Highs State Lows

Community

WunderPhotos

Upload Photos

1,962,540 photos uploaded!

WunderBlog® & News

Nearby

Air Quality

  Air Quality AQ Index Pollutant
Not available.

Snow Depth

Station Depth Elevation

Earthquake Activity

City Distance Mag. Time & Date
Minimum magnitude displayed is 2.5.

Coastal Water Temperatures

Place Temperature

Stations

Nearby Weather Stations

Station Location Temp. Windchill Dew Point Humidity Wind Precip. Elev Updated Type
                   

Watches & Warnings

There are currently no watches in effect.